Olovjannaja, Russia
Current Conditions -  °F | °C
As of 5:00 PM on Saturday 20 Dec 2014 (Local Time) from UIAA Reporting Station
Broken Clouds Broken Clouds  
Wind Chill:   Ceiling: 20000
Heat Index:   Visibility: 6mi
Dew Point: -6°   Wind: 0mph
Humidity: 78%   Direction: NA
Pressure: 30.09"   Gusts: NA
Location:  50.95°N, 115.57°E
Report Text: UIAA 200800Z 00000MPS 9999 FEW100 BKN200 M18/M21 Q1019 TEMPO5000 BR RMK QFE706 29CLRD70
Loading
Personal Weather Stations






























Interactive Weather Map New forecast layout! Learn more

10-Day Weather Forecast

Advertisements
Track Severe Weather on mobile